sensor_id;sensor_type;location;lat;lon;timestamp;P1;P2;P0
66336;PMS1003;53139;45.576;5.304;2022-08-19T00:01:45;7.00;6.00;5.00
66336;PMS1003;53139;45.576;5.304;2022-08-19T00:04:47;7.75;6.00;5.25
66336;PMS1003;53139;45.576;5.304;2022-08-19T00:07:52;10.00;6.50;4.00
66336;PMS1003;53139;45.576;5.304;2022-08-19T00:10:52;5.00;5.00;4.00
66336;PMS1003;53139;45.576;5.304;2022-08-19T00:13:53;9.75;7.25;6.00
66336;PMS1003;53139;45.576;5.304;2022-08-19T00:16:54;6.50;6.00;4.00
66336;PMS1003;53139;45.576;5.304;2022-08-19T00:19:55;9.00;8.00;6.00
66336;PMS1003;53139;45.576;5.304;2022-08-19T00:22:55;3.00;3.00;2.50
66336;PMS1003;53139;45.576;5.304;2022-08-19T00:25:56;9.00;7.00;5.00
66336;PMS1003;53139;45.576;5.304;2022-08-19T00:28:56;8.50;8.50;5.75
66336;PMS1003;53139;45.576;5.304;2022-08-19T00:31:57;7.75;7.75;5.50
66336;PMS1003;53139;45.576;5.304;2022-08-19T00:34:59;9.00;7.75;6.25
66336;PMS1003;53139;45.576;5.304;2022-08-19T00:38:00;7.00;6.75;4.00
66336;PMS1003;53139;45.576;5.304;2022-08-19T00:41:01;10.75;9.00;7.25
66336;PMS1003;53139;45.576;5.304;2022-08-19T00:44:03;5.50;5.00;4.00
66336;PMS1003;53139;45.576;5.304;2022-08-19T00:47:04;7.75;7.75;6.00
66336;PMS1003;53139;45.576;5.304;2022-08-19T00:50:05;10.00;8.75;7.00
66336;PMS1003;53139;45.576;5.304;2022-08-19T00:53:09;12.00;9.25;6.00
66336;PMS1003;53139;45.576;5.304;2022-08-19T00:56:10;8.75;8.75;6.25
66336;PMS1003;53139;45.576;5.304;2022-08-19T00:59:12;12.75;8.00;6.75
66336;PMS1003;53139;45.576;5.304;2022-08-19T01:02:15;10.75;9.50;7.00
66336;PMS1003;53139;45.576;5.304;2022-08-19T01:05:18;9.00;9.00;6.25
66336;PMS1003;53139;45.576;5.304;2022-08-19T01:08:22;10.00;9.25;6.75
66336;PMS1003;53139;45.576;5.304;2022-08-19T01:11:23;8.25;8.25;7.00
66336;PMS1003;53139;45.576;5.304;2022-08-19T01:14:23;11.00;9.50;7.25
66336;PMS1003;53139;45.576;5.304;2022-08-19T01:17:25;10.00;9.00;6.75
66336;PMS1003;53139;45.576;5.304;2022-08-19T01:20:25;9.50;9.50;8.00
66336;PMS1003;53139;45.576;5.304;2022-08-19T01:23:26;7.00;7.00;7.00
66336;PMS1003;53139;45.576;5.304;2022-08-19T01:26:42;14.75;12.00;7.25
66336;PMS1003;53139;45.576;5.304;2022-08-19T01:29:44;11.00;11.00;8.25
66336;PMS1003;53139;45.576;5.304;2022-08-19T01:32:45;12.75;11.75;7.75
66336;PMS1003;53139;45.576;5.304;2022-08-19T01:35:45;10.00;10.00;7.75
66336;PMS1003;53139;45.576;5.304;2022-08-19T01:38:50;11.25;9.25;6.00
66336;PMS1003;53139;45.576;5.304;2022-08-19T01:41:50;12.75;11.00;8.25
66336;PMS1003;53139;45.576;5.304;2022-08-19T01:44:54;9.75;9.25;6.00
66336;PMS1003;53139;45.576;5.304;2022-08-19T01:47:54;10.50;9.00;6.25
66336;PMS1003;53139;45.576;5.304;2022-08-19T01:50:55;8.25;7.00;6.00
66336;PMS1003;53139;45.576;5.304;2022-08-19T01:53:56;10.75;10.00;8.00
66336;PMS1003;53139;45.576;5.304;2022-08-19T01:57:01;9.25;9.25;7.25
66336;PMS1003;53139;45.576;5.304;2022-08-19T02:00:06;14.75;10.00;8.00
66336;PMS1003;53139;45.576;5.304;2022-08-19T02:03:10;11.00;10.25;7.00
66336;PMS1003;53139;45.576;5.304;2022-08-19T02:06:11;7.25;7.25;6.00
66336;PMS1003;53139;45.576;5.304;2022-08-19T02:09:12;7.50;6.75;5.00
66336;PMS1003;53139;45.576;5.304;2022-08-19T02:12:13;8.75;7.75;6.00
66336;PMS1003;53139;45.576;5.304;2022-08-19T02:15:14;9.75;9.25;6.25
66336;PMS1003;53139;45.576;5.304;2022-08-19T02:18:15;10.00;9.00;7.00
66336;PMS1003;53139;45.576;5.304;2022-08-19T02:21:16;9.00;8.50;6.00
66336;PMS1003;53139;45.576;5.304;2022-08-19T02:24:18;11.75;10.00;7.75
66336;PMS1003;53139;45.576;5.304;2022-08-19T02:27:19;12.50;12.00;8.00
66336;PMS1003;53139;45.576;5.304;2022-08-19T02:30:20;11.00;9.75;7.00
66336;PMS1003;53139;45.576;5.304;2022-08-19T02:33:21;10.25;10.25;7.25
66336;PMS1003;53139;45.576;5.304;2022-08-19T02:36:21;11.00;9.50;6.50
66336;PMS1003;53139;45.576;5.304;2022-08-19T02:39:23;9.75;8.25;6.75
66336;PMS1003;53139;45.576;5.304;2022-08-19T02:42:23;8.25;8.00;5.75
66336;PMS1003;53139;45.576;5.304;2022-08-19T02:45:24;10.25;8.50;6.00
66336;PMS1003;53139;45.576;5.304;2022-08-19T02:48:25;10.50;8.00;6.00
66336;PMS1003;53139;45.576;5.304;2022-08-19T02:51:29;10.00;8.00;6.00
66336;PMS1003;53139;45.576;5.304;2022-08-19T02:54:38;10.25;8.00;6.25
66336;PMS1003;53139;45.576;5.304;2022-08-19T02:57:38;8.50;8.50;7.00
66336;PMS1003;53139;45.576;5.304;2022-08-19T03:00:43;11.50;8.50;5.50
66336;PMS1003;53139;45.576;5.304;2022-08-19T03:03:44;8.50;8.50;5.50
66336;PMS1003;53139;45.576;5.304;2022-08-19T03:06:46;8.50;8.25;7.00
66336;PMS1003;53139;45.576;5.304;2022-08-19T03:09:47;9.50;9.50;7.00
66336;PMS1003;53139;45.576;5.304;2022-08-19T03:12:47;9.00;8.00;5.50
66336;PMS1003;53139;45.576;5.304;2022-08-19T03:15:48;8.25;7.75;5.50
66336;PMS1003;53139;45.576;5.304;2022-08-19T03:18:48;8.25;8.00;5.75
66336;PMS1003;53139;45.576;5.304;2022-08-19T03:21:49;9.75;8.50;6.00
66336;PMS1003;53139;45.576;5.304;2022-08-19T03:24:50;8.50;8.50;5.50
66336;PMS1003;53139;45.576;5.304;2022-08-19T03:27:51;8.25;8.25;5.25
66336;PMS1003;53139;45.576;5.304;2022-08-19T03:30:56;11.00;10.00;7.25
66336;PMS1003;53139;45.576;5.304;2022-08-19T03:33:58;10.50;9.75;6.75
66336;PMS1003;53139;45.576;5.304;2022-08-19T03:36:59;9.75;9.75;6.00
66336;PMS1003;53139;45.576;5.304;2022-08-19T03:40:04;11.25;8.00;5.75
66336;PMS1003;53139;45.576;5.304;2022-08-19T03:43:05;12.00;8.00;6.50
66336;PMS1003;53139;45.576;5.304;2022-08-19T03:46:07;9.25;9.25;6.00
66336;PMS1003;53139;45.576;5.304;2022-08-19T03:49:09;10.50;9.75;6.25
66336;PMS1003;53139;45.576;5.304;2022-08-19T03:52:10;8.75;8.75;6.75
66336;PMS1003;53139;45.576;5.304;2022-08-19T03:55:10;7.75;7.25;6.00
66336;PMS1003;53139;45.576;5.304;2022-08-19T03:58:11;11.50;9.50;6.75
66336;PMS1003;53139;45.576;5.304;2022-08-19T04:01:12;8.25;8.25;7.00
66336;PMS1003;53139;45.576;5.304;2022-08-19T04:04:15;7.25;7.25;6.00
66336;PMS1003;53139;45.576;5.304;2022-08-19T04:07:15;9.25;8.75;5.75
66336;PMS1003;53139;45.576;5.304;2022-08-19T04:10:16;10.50;9.75;7.50
66336;PMS1003;53139;45.576;5.304;2022-08-19T04:13:17;10.75;8.75;7.00
66336;PMS1003;53139;45.576;5.304;2022-08-19T04:16:18;12.75;7.00;5.00
66336;PMS1003;53139;45.576;5.304;2022-08-19T04:19:21;14.75;11.50;7.00
66336;PMS1003;53139;45.576;5.304;2022-08-19T04:22:23;11.25;7.75;5.50
66336;PMS1003;53139;45.576;5.304;2022-08-19T04:25:23;9.75;8.75;6.50
66336;PMS1003;53139;45.576;5.304;2022-08-19T04:28:23;10.50;8.00;6.50
66336;PMS1003;53139;45.576;5.304;2022-08-19T04:31:26;12.50;10.00;7.00
66336;PMS1003;53139;45.576;5.304;2022-08-19T04:34:29;9.25;9.00;6.75
66336;PMS1003;53139;45.576;5.304;2022-08-19T04:37:29;11.00;8.75;7.00
66336;PMS1003;53139;45.576;5.304;2022-08-19T04:40:32;9.00;8.00;6.75
66336;PMS1003;53139;45.576;5.304;2022-08-19T04:43:51;10.25;8.25;6.00
66336;PMS1003;53139;45.576;5.304;2022-08-19T04:46:52;13.00;10.00;7.25
66336;PMS1003;53139;45.576;5.304;2022-08-19T04:49:53;13.00;8.25;6.25
66336;PMS1003;53139;45.576;5.304;2022-08-19T04:52:53;10.75;9.50;7.75
66336;PMS1003;53139;45.576;5.304;2022-08-19T04:55:56;13.75;10.00;6.75
66336;PMS1003;53139;45.576;5.304;2022-08-19T04:58:58;10.00;9.25;7.00
66336;PMS1003;53139;45.576;5.304;2022-08-19T05:02:03;9.50;9.50;7.00
66336;PMS1003;53139;45.576;5.304;2022-08-19T05:05:04;9.50;9.50;6.50
66336;PMS1003;53139;45.576;5.304;2022-08-19T05:08:06;11.00;9.00;6.50
66336;PMS1003;53139;45.576;5.304;2022-08-19T05:11:08;10.00;10.00;6.25
66336;PMS1003;53139;45.576;5.304;2022-08-19T05:14:12;8.75;8.75;7.00
66336;PMS1003;53139;45.576;5.304;2022-08-19T05:17:15;14.75;9.75;7.00
66336;PMS1003;53139;45.576;5.304;2022-08-19T05:20:15;10.50;10.25;7.00
66336;PMS1003;53139;45.576;5.304;2022-08-19T05:23:34;13.75;9.50;7.00
66336;PMS1003;53139;45.576;5.304;2022-08-19T05:26:35;13.75;11.25;7.00
66336;PMS1003;53139;45.576;5.304;2022-08-19T05:29:39;12.00;9.50;7.75
66336;PMS1003;53139;45.576;5.304;2022-08-19T05:32:40;10.00;10.00;7.00
66336;PMS1003;53139;45.576;5.304;2022-08-19T05:35:40;9.75;8.25;6.25
66336;PMS1003;53139;45.576;5.304;2022-08-19T05:38:41;7.75;7.25;4.25
66336;PMS1003;53139;45.576;5.304;2022-08-19T05:41:42;12.75;11.00;8.00
66336;PMS1003;53139;45.576;5.304;2022-08-19T05:44:44;11.75;10.50;7.25
66336;PMS1003;53139;45.576;5.304;2022-08-19T05:47:44;10.50;10.00;7.00
66336;PMS1003;53139;45.576;5.304;2022-08-19T05:50:45;8.25;8.25;6.50
66336;PMS1003;53139;45.576;5.304;2022-08-19T05:53:45;9.75;8.00;6.75
66336;PMS1003;53139;45.576;5.304;2022-08-19T05:56:45;14.75;11.00;7.00
66336;PMS1003;53139;45.576;5.304;2022-08-19T05:59:47;9.50;9.50;5.75
66336;PMS1003;53139;45.576;5.304;2022-08-19T06:02:51;10.00;10.00;7.00
66336;PMS1003;53139;45.576;5.304;2022-08-19T06:05:51;10.00;9.00;5.75
66336;PMS1003;53139;45.576;5.304;2022-08-19T06:08:54;9.50;8.50;6.50
66336;PMS1003;53139;45.576;5.304;2022-08-19T06:11:56;10.75;9.50;6.75
66336;PMS1003;53139;45.576;5.304;2022-08-19T06:15:00;11.00;9.75;7.75
66336;PMS1003;53139;45.576;5.304;2022-08-19T06:18:04;10.50;10.00;7.25
66336;PMS1003;53139;45.576;5.304;2022-08-19T06:21:04;12.00;11.00;7.75
66336;PMS1003;53139;45.576;5.304;2022-08-19T06:24:05;10.25;9.75;7.00
66336;PMS1003;53139;45.576;5.304;2022-08-19T06:27:07;12.00;11.75;7.50
66336;PMS1003;53139;45.576;5.304;2022-08-19T06:30:08;12.75;11.75;8.75
66336;PMS1003;53139;45.576;5.304;2022-08-19T06:33:10;10.00;10.00;7.25
66336;PMS1003;53139;45.576;5.304;2022-08-19T06:36:24;10.50;9.00;7.00
66336;PMS1003;53139;45.576;5.304;2022-08-19T06:39:32;11.00;9.50;7.00
66336;PMS1003;53139;45.576;5.304;2022-08-19T06:42:35;9.00;9.00;7.00
66336;PMS1003;53139;45.576;5.304;2022-08-19T06:45:36;12.50;11.00;9.00
66336;PMS1003;53139;45.576;5.304;2022-08-19T06:48:38;12.75;9.25;7.00
66336;PMS1003;53139;45.576;5.304;2022-08-19T06:51:40;11.75;10.50;7.25
66336;PMS1003;53139;45.576;5.304;2022-08-19T06:54:41;9.50;9.00;7.00
66336;PMS1003;53139;45.576;5.304;2022-08-19T06:57:42;11.50;11.50;7.00
66336;PMS1003;53139;45.576;5.304;2022-08-19T07:00:44;11.00;11.00;6.75
66336;PMS1003;53139;45.576;5.304;2022-08-19T07:03:44;10.75;9.75;7.00
66336;PMS1003;53139;45.576;5.304;2022-08-19T07:06:46;14.75;11.50;8.75
66336;PMS1003;53139;45.576;5.304;2022-08-19T07:09:47;12.00;11.50;7.50
66336;PMS1003;53139;45.576;5.304;2022-08-19T07:12:48;11.25;11.00;8.00
66336;PMS1003;53139;45.576;5.304;2022-08-19T07:15:49;8.75;8.75;7.00
66336;PMS1003;53139;45.576;5.304;2022-08-19T07:18:50;12.50;8.75;6.25
66336;PMS1003;53139;45.576;5.304;2022-08-19T07:21:51;11.50;9.00;7.00
66336;PMS1003;53139;45.576;5.304;2022-08-19T07:24:52;10.75;10.75;7.75
66336;PMS1003;53139;45.576;5.304;2022-08-19T07:27:53;12.75;11.00;8.00
66336;PMS1003;53139;45.576;5.304;2022-08-19T07:30:53;6.75;5.25;3.25
66336;PMS1003;53139;45.576;5.304;2022-08-19T07:33:54;11.50;10.00;7.50
66336;PMS1003;53139;45.576;5.304;2022-08-19T07:36:56;11.00;10.00;8.00
66336;PMS1003;53139;45.576;5.304;2022-08-19T07:39:57;10.50;9.25;7.25
66336;PMS1003;53139;45.576;5.304;2022-08-19T07:42:57;10.50;10.50;8.25
66336;PMS1003;53139;45.576;5.304;2022-08-19T07:45:58;13.75;11.75;7.75
66336;PMS1003;53139;45.576;5.304;2022-08-19T07:48:59;9.50;9.50;6.00
66336;PMS1003;53139;45.576;5.304;2022-08-19T07:52:01;13.50;10.25;7.00
66336;PMS1003;53139;45.576;5.304;2022-08-19T07:55:07;12.75;10.00;7.00
66336;PMS1003;53139;45.576;5.304;2022-08-19T07:58:11;9.25;5.50;5.00
66336;PMS1003;53139;45.576;5.304;2022-08-19T08:01:16;12.00;11.50;7.75
66336;PMS1003;53139;45.576;5.304;2022-08-19T08:04:19;12.50;12.00;8.00
66336;PMS1003;53139;45.576;5.304;2022-08-19T08:07:38;12.25;11.50;8.00
66336;PMS1003;53139;45.576;5.304;2022-08-19T08:10:57;11.50;10.50;8.00
66336;PMS1003;53139;45.576;5.304;2022-08-19T08:13:58;11.50;11.00;7.50
66336;PMS1003;53139;45.576;5.304;2022-08-19T08:16:59;15.25;12.25;7.25
66336;PMS1003;53139;45.576;5.304;2022-08-19T08:19:59;10.25;9.75;7.00
66336;PMS1003;53139;45.576;5.304;2022-08-19T08:23:00;13.00;13.00;8.25
66336;PMS1003;53139;45.576;5.304;2022-08-19T08:26:19;14.50;11.75;6.00
66336;PMS1003;53139;45.576;5.304;2022-08-19T08:29:19;12.50;11.25;8.50
66336;PMS1003;53139;45.576;5.304;2022-08-19T08:32:20;16.25;14.25;8.50
66336;PMS1003;53139;45.576;5.304;2022-08-19T08:35:21;11.00;11.00;8.00
66336;PMS1003;53139;45.576;5.304;2022-08-19T08:38:22;15.00;12.25;9.00
66336;PMS1003;53139;45.576;5.304;2022-08-19T08:47:35;13.50;12.75;9.00
66336;PMS1003;53139;45.576;5.304;2022-08-19T08:50:41;14.75;14.75;9.50
66336;PMS1003;53139;45.576;5.304;2022-08-19T08:53:45;15.75;12.00;8.75
66336;PMS1003;53139;45.576;5.304;2022-08-19T08:56:47;17.00;14.00;9.75
66336;PMS1003;53139;45.576;5.304;2022-08-19T08:59:50;15.75;13.25;9.75
66336;PMS1003;53139;45.576;5.304;2022-08-19T09:02:54;15.00;11.75;9.25
66336;PMS1003;53139;45.576;5.304;2022-08-19T09:12:22;17.25;16.00;10.25
66336;PMS1003;53139;45.576;5.304;2022-08-19T09:15:38;17.75;16.50;11.50
66336;PMS1003;53139;45.576;5.304;2022-08-19T09:18:49;10.75;9.00;4.50
66336;PMS1003;53139;45.576;5.304;2022-08-19T09:21:53;17.75;16.75;10.25
66336;PMS1003;53139;45.576;5.304;2022-08-19T09:24:54;22.00;17.50;11.75
66336;PMS1003;53139;45.576;5.304;2022-08-19T09:27:55;22.50;19.00;11.75
66336;PMS1003;53139;45.576;5.304;2022-08-19T09:30:56;19.25;16.75;11.75
66336;PMS1003;53139;45.576;5.304;2022-08-19T09:33:57;23.00;18.00;12.25
66336;PMS1003;53139;45.576;5.304;2022-08-19T09:36:57;21.50;18.00;12.00
66336;PMS1003;53139;45.576;5.304;2022-08-19T09:39:59;20.00;18.75;11.75
66336;PMS1003;53139;45.576;5.304;2022-08-19T09:43:00;16.25;13.50;10.25
66336;PMS1003;53139;45.576;5.304;2022-08-19T09:46:05;20.50;16.75;12.25
66336;PMS1003;53139;45.576;5.304;2022-08-19T09:49:09;17.75;16.00;11.75
66336;PMS1003;53139;45.576;5.304;2022-08-19T09:52:09;17.50;17.50;12.00
66336;PMS1003;53139;45.576;5.304;2022-08-19T09:55:11;20.00;17.25;11.50
66336;PMS1003;53139;45.576;5.304;2022-08-19T09:58:12;23.00;20.75;13.50
66336;PMS1003;53139;45.576;5.304;2022-08-19T10:01:20;16.00;15.25;12.00
66336;PMS1003;53139;45.576;5.304;2022-08-19T10:04:25;17.50;16.75;12.25
66336;PMS1003;53139;45.576;5.304;2022-08-19T10:07:45;17.50;17.25;12.25
66336;PMS1003;53139;45.576;5.304;2022-08-19T10:10:46;23.50;18.25;11.75
66336;PMS1003;53139;45.576;5.304;2022-08-19T10:13:48;13.50;13.25;8.25
66336;PMS1003;53139;45.576;5.304;2022-08-19T10:16:48;18.75;16.00;9.75
66336;PMS1003;53139;45.576;5.304;2022-08-19T10:19:49;20.50;16.50;12.25
66336;PMS1003;53139;45.576;5.304;2022-08-19T10:22:49;16.00;15.75;11.00
66336;PMS1003;53139;45.576;5.304;2022-08-19T10:25:50;18.50;15.75;11.50
66336;PMS1003;53139;45.576;5.304;2022-08-19T10:28:53;15.75;13.75;9.75
66336;PMS1003;53139;45.576;5.304;2022-08-19T10:31:55;20.00;16.25;12.25
66336;PMS1003;53139;45.576;5.304;2022-08-19T10:34:56;17.00;15.25;10.50
66336;PMS1003;53139;45.576;5.304;2022-08-19T10:37:57;19.25;16.50;12.00
66336;PMS1003;53139;45.576;5.304;2022-08-19T10:41:08;22.25;19.75;13.25
66336;PMS1003;53139;45.576;5.304;2022-08-19T10:44:16;23.50;18.25;11.50
66336;PMS1003;53139;45.576;5.304;2022-08-19T10:47:18;19.75;16.50;11.25
66336;PMS1003;53139;45.576;5.304;2022-08-19T10:50:18;23.75;19.75;12.00
66336;PMS1003;53139;45.576;5.304;2022-08-19T10:53:37;18.25;17.00;11.00
66336;PMS1003;53139;45.576;5.304;2022-08-19T10:56:38;16.75;16.00;11.00
66336;PMS1003;53139;45.576;5.304;2022-08-19T10:59:56;20.25;17.50;12.00
66336;PMS1003;53139;45.576;5.304;2022-08-19T11:02:57;21.00;19.25;14.00
66336;PMS1003;53139;45.576;5.304;2022-08-19T11:06:00;20.00;18.75;12.00
66336;PMS1003;53139;45.576;5.304;2022-08-19T11:09:06;22.00;18.75;11.75
66336;PMS1003;53139;45.576;5.304;2022-08-19T11:12:08;22.25;20.50;14.75
66336;PMS1003;53139;45.576;5.304;2022-08-19T11:15:09;20.00;17.75;13.50
66336;PMS1003;53139;45.576;5.304;2022-08-19T11:18:10;21.25;20.00;12.50
66336;PMS1003;53139;45.576;5.304;2022-08-19T11:21:15;18.75;16.25;12.00
66336;PMS1003;53139;45.576;5.304;2022-08-19T11:24:20;19.00;18.25;13.25
66336;PMS1003;53139;45.576;5.304;2022-08-19T11:27:22;20.00;18.25;12.50
66336;PMS1003;53139;45.576;5.304;2022-08-19T11:30:22;23.25;20.50;13.50
66336;PMS1003;53139;45.576;5.304;2022-08-19T11:33:23;18.25;16.75;11.75
66336;PMS1003;53139;45.576;5.304;2022-08-19T11:36:26;22.75;20.50;13.75
66336;PMS1003;53139;45.576;5.304;2022-08-19T11:39:28;22.75;20.25;12.50
66336;PMS1003;53139;45.576;5.304;2022-08-19T11:42:30;21.75;19.50;12.75
66336;PMS1003;53139;45.576;5.304;2022-08-19T11:45:49;23.00;17.75;10.25
66336;PMS1003;53139;45.576;5.304;2022-08-19T11:48:49;19.75;18.00;14.00
66336;PMS1003;53139;45.576;5.304;2022-08-19T11:51:50;24.00;21.25;12.50
66336;PMS1003;53139;45.576;5.304;2022-08-19T11:54:50;21.50;20.25;13.00
66336;PMS1003;53139;45.576;5.304;2022-08-19T11:57:51;20.25;18.00;12.50
66336;PMS1003;53139;45.576;5.304;2022-08-19T12:00:51;23.00;18.75;13.50
66336;PMS1003;53139;45.576;5.304;2022-08-19T12:03:53;17.50;17.50;10.00
66336;PMS1003;53139;45.576;5.304;2022-08-19T12:06:54;18.75;16.50;12.00
66336;PMS1003;53139;45.576;5.304;2022-08-19T12:09:55;21.00;19.75;12.50
66336;PMS1003;53139;45.576;5.304;2022-08-19T12:12:56;22.00;17.25;13.00
66336;PMS1003;53139;45.576;5.304;2022-08-19T12:15:56;20.00;18.50;12.75
66336;PMS1003;53139;45.576;5.304;2022-08-19T12:18:58;16.75;16.75;12.00
66336;PMS1003;53139;45.576;5.304;2022-08-19T12:22:04;21.00;18.75;13.00
66336;PMS1003;53139;45.576;5.304;2022-08-19T12:25:06;22.25;19.50;13.50
66336;PMS1003;53139;45.576;5.304;2022-08-19T12:28:08;21.75;19.00;11.50
66336;PMS1003;53139;45.576;5.304;2022-08-19T12:31:09;21.50;17.00;10.50
66336;PMS1003;53139;45.576;5.304;2022-08-19T12:34:12;23.00;21.00;14.50
66336;PMS1003;53139;45.576;5.304;2022-08-19T12:37:12;21.50;19.50;13.75
66336;PMS1003;53139;45.576;5.304;2022-08-19T12:40:14;22.50;19.75;13.25
66336;PMS1003;53139;45.576;5.304;2022-08-19T12:43:16;17.25;16.75;11.25
66336;PMS1003;53139;45.576;5.304;2022-08-19T12:46:16;22.75;21.25;12.25
66336;PMS1003;53139;45.576;5.304;2022-08-19T12:49:18;24.50;21.75;12.75
66336;PMS1003;53139;45.576;5.304;2022-08-19T12:52:19;20.75;18.00;12.75
66336;PMS1003;53139;45.576;5.304;2022-08-19T12:55:21;20.25;17.00;12.00
66336;PMS1003;53139;45.576;5.304;2022-08-19T12:58:21;23.75;19.00;12.50
66336;PMS1003;53139;45.576;5.304;2022-08-19T13:01:21;13.25;12.00;10.25
66336;PMS1003;53139;45.576;5.304;2022-08-19T13:04:22;17.00;14.00;10.50
66336;PMS1003;53139;45.576;5.304;2022-08-19T13:07:22;17.50;15.25;9.25
66336;PMS1003;53139;45.576;5.304;2022-08-19T13:10:24;19.75;18.25;10.75
66336;PMS1003;53139;45.576;5.304;2022-08-19T13:13:31;18.00;14.25;9.00
66336;PMS1003;53139;45.576;5.304;2022-08-19T13:16:31;15.75;15.00;10.75
66336;PMS1003;53139;45.576;5.304;2022-08-19T13:19:32;15.75;15.75;11.50
66336;PMS1003;53139;45.576;5.304;2022-08-19T13:22:33;19.00;19.00;11.00
66336;PMS1003;53139;45.576;5.304;2022-08-19T13:25:35;19.00;15.25;10.00
66336;PMS1003;53139;45.576;5.304;2022-08-19T13:28:36;19.75;15.00;8.25
66336;PMS1003;53139;45.576;5.304;2022-08-19T13:31:55;19.00;13.25;10.25
66336;PMS1003;53139;45.576;5.304;2022-08-19T13:35:14;15.25;14.25;9.75
66336;PMS1003;53139;45.576;5.304;2022-08-19T13:38:18;7.00;7.00;7.00
66336;PMS1003;53139;45.576;5.304;2022-08-19T13:41:20;13.50;12.50;9.25
66336;PMS1003;53139;45.576;5.304;2022-08-19T13:44:20;22.00;18.50;11.75
66336;PMS1003;53139;45.576;5.304;2022-08-19T13:47:21;15.75;13.25;11.00
66336;PMS1003;53139;45.576;5.304;2022-08-19T13:50:23;16.75;16.00;10.50
66336;PMS1003;53139;45.576;5.304;2022-08-19T13:53:26;14.00;13.25;10.25
66336;PMS1003;53139;45.576;5.304;2022-08-19T13:56:27;17.75;16.00;11.00
66336;PMS1003;53139;45.576;5.304;2022-08-19T13:59:27;14.75;14.00;9.25
66336;PMS1003;53139;45.576;5.304;2022-08-19T14:02:27;15.50;15.00;10.50
66336;PMS1003;53139;45.576;5.304;2022-08-19T14:05:28;17.75;16.50;11.00
66336;PMS1003;53139;45.576;5.304;2022-08-19T14:08:30;14.25;14.25;11.25
66336;PMS1003;53139;45.576;5.304;2022-08-19T14:11:32;13.25;11.75;8.50
66336;PMS1003;53139;45.576;5.304;2022-08-19T14:14:35;16.50;14.00;10.75
66336;PMS1003;53139;45.576;5.304;2022-08-19T14:17:37;16.75;14.00;9.75
66336;PMS1003;53139;45.576;5.304;2022-08-19T14:20:39;13.50;12.50;9.50
66336;PMS1003;53139;45.576;5.304;2022-08-19T14:23:40;13.00;12.50;9.00
66336;PMS1003;53139;45.576;5.304;2022-08-19T14:26:40;14.25;12.75;8.50
66336;PMS1003;53139;45.576;5.304;2022-08-19T14:29:41;11.75;9.75;8.00
66336;PMS1003;53139;45.576;5.304;2022-08-19T14:32:41;12.00;12.00;9.25
66336;PMS1003;53139;45.576;5.304;2022-08-19T14:35:45;13.50;12.25;8.00
66336;PMS1003;53139;45.576;5.304;2022-08-19T14:38:45;12.25;12.00;9.00
66336;PMS1003;53139;45.576;5.304;2022-08-19T14:41:46;14.00;12.50;8.75
66336;PMS1003;53139;45.576;5.304;2022-08-19T14:44:46;11.75;9.75;5.25
66336;PMS1003;53139;45.576;5.304;2022-08-19T14:47:46;10.75;9.75;7.25
66336;PMS1003;53139;45.576;5.304;2022-08-19T14:50:47;10.00;9.00;7.50
66336;PMS1003;53139;45.576;5.304;2022-08-19T14:53:47;10.50;8.75;6.25
66336;PMS1003;53139;45.576;5.304;2022-08-19T14:56:48;9.00;8.00;6.25
66336;PMS1003;53139;45.576;5.304;2022-08-19T14:59:50;9.75;9.75;7.00
66336;PMS1003;53139;45.576;5.304;2022-08-19T15:02:50;10.00;9.75;8.00
66336;PMS1003;53139;45.576;5.304;2022-08-19T15:05:51;11.00;10.50;8.00
66336;PMS1003;53139;45.576;5.304;2022-08-19T15:08:51;11.00;11.00;8.00
66336;PMS1003;53139;45.576;5.304;2022-08-19T15:11:53;10.00;9.00;6.25
66336;PMS1003;53139;45.576;5.304;2022-08-19T15:14:53;8.75;8.75;5.75
66336;PMS1003;53139;45.576;5.304;2022-08-19T15:17:54;10.00;8.25;6.75
66336;PMS1003;53139;45.576;5.304;2022-08-19T15:20:56;11.25;9.00;7.25
66336;PMS1003;53139;45.576;5.304;2022-08-19T15:23:57;8.50;8.50;7.00
66336;PMS1003;53139;45.576;5.304;2022-08-19T15:26:58;9.50;8.00;6.75
66336;PMS1003;53139;45.576;5.304;2022-08-19T15:29:58;9.00;7.75;7.00
66336;PMS1003;53139;45.576;5.304;2022-08-19T15:32:59;7.75;7.75;6.00
66336;PMS1003;53139;45.576;5.304;2022-08-19T15:35:59;8.25;7.25;5.25
66336;PMS1003;53139;45.576;5.304;2022-08-19T15:38:59;8.25;8.25;6.25
66336;PMS1003;53139;45.576;5.304;2022-08-19T15:42:00;9.00;7.25;5.50
66336;PMS1003;53139;45.576;5.304;2022-08-19T15:45:03;10.75;7.50;5.75
66336;PMS1003;53139;45.576;5.304;2022-08-19T15:48:04;7.25;6.75;6.25
66336;PMS1003;53139;45.576;5.304;2022-08-19T15:51:05;6.00;6.00;5.00
66336;PMS1003;53139;45.576;5.304;2022-08-19T15:54:06;9.75;8.00;6.00
66336;PMS1003;53139;45.576;5.304;2022-08-19T15:57:08;6.50;4.75;4.00
66336;PMS1003;53139;45.576;5.304;2022-08-19T16:00:20;7.25;7.00;5.75
66336;PMS1003;53139;45.576;5.304;2022-08-19T16:03:39;9.25;7.00;6.00
66336;PMS1003;53139;45.576;5.304;2022-08-19T16:06:59;7.00;7.00;5.00
66336;PMS1003;53139;45.576;5.304;2022-08-19T16:10:00;8.00;6.50;5.25
66336;PMS1003;53139;45.576;5.304;2022-08-19T16:13:01;7.00;7.00;5.00
66336;PMS1003;53139;45.576;5.304;2022-08-19T16:16:01;10.00;7.25;5.75
66336;PMS1003;53139;45.576;5.304;2022-08-19T16:19:03;6.25;6.25;5.75
66336;PMS1003;53139;45.576;5.304;2022-08-19T16:22:05;7.50;7.50;5.75
66336;PMS1003;53139;45.576;5.304;2022-08-19T16:25:06;7.50;7.00;5.25
66336;PMS1003;53139;45.576;5.304;2022-08-19T16:28:08;7.25;7.25;5.00
66336;PMS1003;53139;45.576;5.304;2022-08-19T16:31:09;7.00;7.00;5.25
66336;PMS1003;53139;45.576;5.304;2022-08-19T16:34:10;8.00;8.00;5.75
66336;PMS1003;53139;45.576;5.304;2022-08-19T16:37:12;8.75;8.50;5.50
66336;PMS1003;53139;45.576;5.304;2022-08-19T16:40:13;6.75;6.75;5.75
66336;PMS1003;53139;45.576;5.304;2022-08-19T16:43:14;9.25;8.25;5.25
66336;PMS1003;53139;45.576;5.304;2022-08-19T16:46:14;7.25;7.00;4.50
66336;PMS1003;53139;45.576;5.304;2022-08-19T16:49:15;7.50;7.00;5.50
66336;PMS1003;53139;45.576;5.304;2022-08-19T16:52:16;8.50;7.00;6.00
66336;PMS1003;53139;45.576;5.304;2022-08-19T16:55:18;9.25;8.00;6.00
66336;PMS1003;53139;45.576;5.304;2022-08-19T16:58:21;4.00;4.00;4.00
66336;PMS1003;53139;45.576;5.304;2022-08-19T17:01:24;7.50;7.50;6.00
66336;PMS1003;53139;45.576;5.304;2022-08-19T17:04:26;7.00;5.00;4.50
66336;PMS1003;53139;45.576;5.304;2022-08-19T17:07:27;7.25;7.25;5.75
66336;PMS1003;53139;45.576;5.304;2022-08-19T17:10:28;6.25;6.00;4.25
66336;PMS1003;53139;45.576;5.304;2022-08-19T17:13:29;5.50;5.25;3.25
66336;PMS1003;53139;45.576;5.304;2022-08-19T17:16:31;8.25;7.75;5.25
66336;PMS1003;53139;45.576;5.304;2022-08-19T17:19:33;9.00;6.25;4.75
66336;PMS1003;53139;45.576;5.304;2022-08-19T17:22:34;7.00;7.00;5.25
66336;PMS1003;53139;45.576;5.304;2022-08-19T17:25:36;8.50;6.50;5.00
66336;PMS1003;53139;45.576;5.304;2022-08-19T17:28:37;6.75;6.75;5.50
66336;PMS1003;53139;45.576;5.304;2022-08-19T17:31:37;7.00;6.00;5.00
66336;PMS1003;53139;45.576;5.304;2022-08-19T17:34:38;8.00;8.00;6.00
66336;PMS1003;53139;45.576;5.304;2022-08-19T17:37:38;6.25;5.75;5.00